Time;durP1;ratioP1;P1;durP2;ratioP2;P2;SDS_P1;SDS_P2;PMS_P1;PMS_P2;Temp;Humidity;BMP_temperature;BMP_pressure;BME280_temperature;BME280_humidity;BME280_pressure;Samples;Min_cycle;Max_cycle;Signal;HPM_P1;HPM_P2
2023/10/16 00:01:09;;;;;;;11.55;8.48;;;;;;;;;;2084638;28;20098;-77
2023/10/16 00:02:30;;;;;;;12.40;8.60;;;;;;;;;;2087575;28;20045;-77
2023/10/16 00:03:51;;;;;;;12.10;8.95;;;;;;;;;;2079772;28;20037;-76
2023/10/16 00:05:14;;;;;;;11.27;8.57;;;;;;;;;;2064990;28;20493;-76
2023/10/16 00:06:35;;;;;;;15.65;9.25;;;;;;;;;;2065832;28;20027;-76
2023/10/16 00:07:56;;;;;;;12.05;8.38;;;;;;;;;;2072206;28;20030;-73
2023/10/16 00:09:24;;;;;;;12.15;8.35;;;;;;;;;;2073770;28;20497;-72
2023/10/16 00:10:57;;;;;;;14.40;8.73;;;;;;;;;;2073260;28;20057;-72
2023/10/16 00:12:19;;;;;;;15.10;8.63;;;;;;;;;;2073859;28;20053;-72
2023/10/16 00:13:39;;;;;;;10.73;9.43;;;;;;;;;;2074304;28;20030;-72
2023/10/16 00:15:00;;;;;;;9.80;8.07;;;;;;;;;;2076357;28;20045;-72
2023/10/16 00:16:21;;;;;;;13.25;9.55;;;;;;;;;;2084388;28;20033;-72
2023/10/16 00:17:43;;;;;;;13.15;9.23;;;;;;;;;;2070310;28;20074;-72
2023/10/16 00:19:09;;;;;;;11.18;8.15;;;;;;;;;;2071899;28;20022;-72
2023/10/16 00:20:30;;;;;;;11.90;9.15;;;;;;;;;;2074319;28;20030;-72
2023/10/16 00:21:57;;;;;;;9.55;8.40;;;;;;;;;;2073931;28;20030;-72
2023/10/16 00:23:19;;;;;;;12.65;8.80;;;;;;;;;;2080517;28;20038;-72
2023/10/16 00:24:45;;;;;;;14.63;8.10;;;;;;;;;;2074798;28;20041;-73
2023/10/16 00:26:07;;;;;;;14.15;8.15;;;;;;;;;;2073878;28;20033;-71
2023/10/16 00:27:28;;;;;;;10.50;8.02;;;;;;;;;;2069835;28;20486;-72
2023/10/16 00:29:02;;;;;;;13.35;9.82;;;;;;;;;;2081736;28;20046;-72
2023/10/16 00:30:23;;;;;;;13.65;8.73;;;;;;;;;;2066650;28;20034;-72
2023/10/16 00:31:45;;;;;;;15.73;8.73;;;;;;;;;;2068109;28;20077;-71
2023/10/16 00:33:06;;;;;;;12.98;8.80;;;;;;;;;;2074116;28;20025;-72
2023/10/16 00:34:28;;;;;;;12.57;9.18;;;;;;;;;;2074211;28;20029;-72
2023/10/16 00:35:49;;;;;;;14.27;9.02;;;;;;;;;;2073299;28;20052;-73
2023/10/16 00:37:10;;;;;;;13.65;9.18;;;;;;;;;;2074931;28;20050;-71
2023/10/16 00:38:37;;;;;;;13.75;8.82;;;;;;;;;;2072238;28;20494;-72
2023/10/16 00:39:59;;;;;;;26.95;10.15;;;;;;;;;;2073614;28;20046;-72
2023/10/16 00:41:24;;;;;;;12.27;9.23;;;;;;;;;;2070591;28;20034;-73
2023/10/16 00:42:45;;;;;;;11.50;8.70;;;;;;;;;;2077637;28;20026;-72
2023/10/16 00:44:06;;;;;;;14.00;8.88;;;;;;;;;;2084780;28;20030;-71
2023/10/16 00:45:27;;;;;;;9.10;7.07;;;;;;;;;;2075702;28;20053;-72
2023/10/16 00:46:48;;;;;;;11.65;8.32;;;;;;;;;;2074244;28;20044;-72
2023/10/16 00:48:09;;;;;;;14.75;9.70;;;;;;;;;;2073336;28;20050;-73
2023/10/16 00:49:34;;;;;;;10.85;8.63;;;;;;;;;;2073401;28;20034;-72
2023/10/16 00:50:55;;;;;;;12.60;9.60;;;;;;;;;;2073735;28;20033;-72
2023/10/16 00:52:18;;;;;;;11.02;8.57;;;;;;;;;;2066392;28;20080;-73
2023/10/16 00:53:39;;;;;;;10.35;8.60;;;;;;;;;;2070630;28;20034;-72
2023/10/16 00:55:00;;;;;;;19.17;10.13;;;;;;;;;;2079663;28;20038;-73
2023/10/16 00:56:27;;;;;;;12.15;8.63;;;;;;;;;;2072259;28;20030;-73
2023/10/16 00:57:48;;;;;;;14.90;9.27;;;;;;;;;;2073597;28;20026;-73
2023/10/16 00:59:10;;;;;;;14.15;9.25;;;;;;;;;;2073602;28;20033;-73
2023/10/16 01:00:37;;;;;;;12.93;9.48;;;;;;;;;;2079392;28;20025;-73
2023/10/16 01:02:15;;;;;;;13.25;9.07;;;;;;;;;;2072613;28;20026;-73
2023/10/16 01:03:37;;;;;;;13.55;8.88;;;;;;;;;;2073467;28;20037;-73
2023/10/16 01:05:01;;;;;;;13.38;8.77;;;;;;;;;;2065211;28;20030;-73
2023/10/16 01:06:26;;;;;;;11.25;8.05;;;;;;;;;;2079377;28;20042;-73
2023/10/16 01:07:47;;;;;;;12.73;8.52;;;;;;;;;;2079615;28;20034;-73
2023/10/16 01:09:08;;;;;;;11.63;8.75;;;;;;;;;;2089354;28;20025;-73
2023/10/16 01:10:32;;;;;;;33.72;13.25;;;;;;;;;;2084338;28;20507;-73
2023/10/16 01:11:54;;;;;;;9.93;7.95;;;;;;;;;;2079905;28;20034;-73
2023/10/16 01:13:16;;;;;;;14.60;10.07;;;;;;;;;;2073743;28;20433;-74
2023/10/16 01:14:37;;;;;;;16.05;9.20;;;;;;;;;;2082144;28;20041;-73
2023/10/16 01:15:58;;;;;;;13.63;9.55;;;;;;;;;;2081176;28;20029;-73
2023/10/16 01:17:29;;;;;;;10.27;9.00;;;;;;;;;;2081018;28;20041;-73
2023/10/16 01:18:50;;;;;;;11.57;8.80;;;;;;;;;;2090384;28;20029;-80
2023/10/16 01:20:11;;;;;;;16.23;9.23;;;;;;;;;;2075633;28;20034;-79
2023/10/16 01:21:32;;;;;;;10.93;8.18;;;;;;;;;;2075934;28;20026;-79
2023/10/16 01:22:54;;;;;;;11.13;9.20;;;;;;;;;;2082618;28;20037;-79
2023/10/16 01:24:16;;;;;;;11.35;8.30;;;;;;;;;;2082585;28;20032;-79
2023/10/16 01:25:37;;;;;;;16.30;9.57;;;;;;;;;;2076481;28;20048;-77
2023/10/16 01:27:06;;;;;;;12.07;9.20;;;;;;;;;;2082134;28;20443;-79
2023/10/16 01:28:27;;;;;;;16.15;9.32;;;;;;;;;;2068512;28;20606;-79
2023/10/16 01:29:48;;;;;;;13.25;9.43;;;;;;;;;;2070187;28;20072;-79
2023/10/16 01:31:09;;;;;;;11.60;9.15;;;;;;;;;;2072914;28;20037;-79
2023/10/16 01:32:31;;;;;;;17.67;10.48;;;;;;;;;;2073182;28;20038;-79
2023/10/16 01:33:54;;;;;;;12.88;9.68;;;;;;;;;;2062027;28;20034;-78
2023/10/16 01:35:18;;;;;;;14.45;10.90;;;;;;;;;;2070700;28;20180;-78
2023/10/16 01:36:45;;;;;;;14.30;9.95;;;;;;;;;;2074380;28;20047;-79
2023/10/16 01:38:16;;;;;;;15.68;10.23;;;;;;;;;;2075413;28;20635;-78
2023/10/16 01:39:49;;;;;;;13.30;10.07;;;;;;;;;;2076559;28;20030;-78
2023/10/16 01:41:18;;;;;;;16.67;10.77;;;;;;;;;;2075465;28;20696;-79
2023/10/16 01:42:39;;;;;;;16.48;10.73;;;;;;;;;;2075191;28;20059;-79
2023/10/16 01:44:09;;;;;;;17.13;10.73;;;;;;;;;;2074602;28;20042;-79
2023/10/16 01:45:30;;;;;;;12.93;9.65;;;;;;;;;;2075962;28;20045;-77
2023/10/16 01:46:51;;;;;;;16.88;10.48;;;;;;;;;;2078056;28;20171;-79
2023/10/16 01:48:12;;;;;;;12.80;9.52;;;;;;;;;;2078341;28;20492;-79
2023/10/16 01:49:33;;;;;;;13.60;10.20;;;;;;;;;;2075699;28;20041;-79
2023/10/16 01:50:54;;;;;;;14.55;10.75;;;;;;;;;;2079686;28;20033;-75
2023/10/16 01:52:15;;;;;;;16.30;10.38;;;;;;;;;;2082744;28;20045;-79
2023/10/16 01:53:36;;;;;;;13.82;8.68;;;;;;;;;;2089338;28;20091;-79
2023/10/16 01:54:57;;;;;;;14.57;10.55;;;;;;;;;;2085882;28;20088;-79
2023/10/16 01:56:21;;;;;;;14.40;10.13;;;;;;;;;;2081938;28;20094;-78
2023/10/16 01:57:44;;;;;;;13.77;11.27;;;;;;;;;;2083974;28;20025;-78
2023/10/16 01:59:06;;;;;;;15.07;11.02;;;;;;;;;;2083424;28;20033;-76
2023/10/16 02:00:34;;;;;;;17.75;11.20;;;;;;;;;;2089543;28;21526;-79
2023/10/16 02:01:55;;;;;;;17.55;10.80;;;;;;;;;;2082964;28;22278;-77
2023/10/16 02:03:17;;;;;;;12.40;10.35;;;;;;;;;;2083032;28;20037;-79
2023/10/16 02:04:38;;;;;;;12.25;9.80;;;;;;;;;;2082472;28;20033;-77
2023/10/16 02:05:59;;;;;;;15.20;11.63;;;;;;;;;;2081194;28;20496;-79
2023/10/16 02:07:20;;;;;;;14.18;10.10;;;;;;;;;;2083835;28;20137;-79
2023/10/16 02:08:41;;;;;;;11.75;8.98;;;;;;;;;;2085538;28;20030;-79
2023/10/16 02:10:03;;;;;;;14.07;10.80;;;;;;;;;;2081334;28;20075;-77
2023/10/16 02:11:25;;;;;;;13.35;10.75;;;;;;;;;;2085840;28;20028;-79
2023/10/16 02:12:46;;;;;;;17.40;10.45;;;;;;;;;;2084089;28;20083;-77
2023/10/16 02:14:07;;;;;;;13.60;10.27;;;;;;;;;;2082006;28;20037;-79
2023/10/16 02:15:28;;;;;;;11.85;10.35;;;;;;;;;;2082150;28;20601;-77
2023/10/16 02:16:49;;;;;;;12.63;9.65;;;;;;;;;;2090022;28;20492;-79
2023/10/16 02:18:27;;;;;;;15.85;10.45;;;;;;;;;;2084312;28;20323;-78
2023/10/16 02:19:48;;;;;;;16.48;10.55;;;;;;;;;;2080742;28;20083;-76
2023/10/16 02:21:11;;;;;;;11.38;9.55;;;;;;;;;;2075295;28;20468;-77
2023/10/16 02:22:32;;;;;;;19.05;11.30;;;;;;;;;;2081697;28;20037;-79
2023/10/16 02:23:54;;;;;;;19.45;11.25;;;;;;;;;;2083300;28;20392;-79
2023/10/16 02:25:17;;;;;;;;;;;;;;;;;;2087408;28;20090;-77
2023/10/16 02:28:31;;;;;;;19.90;11.55;;;;;;;;;;2077853;28;20049;-75
2023/10/16 02:29:52;;;;;;;15.07;10.23;;;;;;;;;;2082396;28;20083;-75
2023/10/16 02:31:14;;;;;;;17.88;11.50;;;;;;;;;;2087900;28;20098;-76
2023/10/16 02:32:36;;;;;;;20.42;11.90;;;;;;;;;;2084355;28;20032;-76
2023/10/16 02:34:12;;;;;;;16.33;10.90;;;;;;;;;;2082477;28;20106;-75
2023/10/16 02:35:34;;;;;;;17.05;12.95;;;;;;;;;;2081937;28;20037;-76
2023/10/16 02:36:55;;;;;;;;;;;;;;;;;;2078177;28;20033;-75
2023/10/16 02:38:23;;;;;;;16.60;11.50;;;;;;;;;;2065910;28;19952;-76
2023/10/16 02:39:50;;;;;;;22.10;11.52;;;;;;;;;;2066487;28;20038;-77
2023/10/16 02:41:11;;;;;;;17.90;12.35;;;;;;;;;;2070915;28;20096;-74
2023/10/16 02:42:32;;;;;;;14.25;10.75;;;;;;;;;;2073251;28;20053;-76
2023/10/16 02:43:53;;;;;;;17.33;10.90;;;;;;;;;;2069778;28;20088;-75
2023/10/16 02:45:24;;;;;;;18.83;11.85;;;;;;;;;;2070901;28;20049;-76
2023/10/16 02:46:45;;;;;;;15.80;10.80;;;;;;;;;;2066203;28;20183;-75
2023/10/16 02:48:09;;;;;;;15.43;10.43;;;;;;;;;;2058239;28;20034;-75
2023/10/16 02:49:33;;;;;;;17.65;10.57;;;;;;;;;;2053990;28;20101;-75
2023/10/16 02:50:54;;;;;;;21.88;11.40;;;;;;;;;;2060860;28;20044;-75
2023/10/16 02:52:16;;;;;;;14.45;10.65;;;;;;;;;;2067291;28;20030;-75
2023/10/16 02:53:41;;;;;;;13.63;10.23;;;;;;;;;;2064978;28;20453;-75
2023/10/16 02:55:01;;;;;;;15.65;10.40;;;;;;;;;;2056458;28;20478;-75
2023/10/16 02:56:25;;;;;;;15.00;10.52;;;;;;;;;;2060306;28;20035;-75
2023/10/16 02:57:45;;;;;;;18.73;10.75;;;;;;;;;;2061736;28;20030;-75
2023/10/16 02:59:08;;;;;;;17.45;10.95;;;;;;;;;;2062371;28;20030;-75
2023/10/16 03:00:35;;;;;;;13.25;9.43;;;;;;;;;;2060698;28;20397;-75
2023/10/16 03:01:56;;;;;;;14.70;10.07;;;;;;;;;;2065548;28;20030;-75
2023/10/16 03:03:17;;;;;;;13.98;10.35;;;;;;;;;;2064436;28;20029;-75
2023/10/16 03:04:39;;;;;;;13.80;10.35;;;;;;;;;;2071806;28;20057;-74
2023/10/16 03:06:03;;;;;;;16.33;10.80;;;;;;;;;;2067264;28;20046;-75
2023/10/16 03:07:25;;;;;;;15.90;11.48;;;;;;;;;;2078829;28;20029;-76
2023/10/16 03:08:49;;;;;;;17.67;11.07;;;;;;;;;;2069338;28;20035;-75
2023/10/16 03:10:10;;;;;;;19.90;10.95;;;;;;;;;;2077217;28;20029;-75
2023/10/16 03:11:31;;;;;;;16.38;10.43;;;;;;;;;;2067234;28;20041;-75
2023/10/16 03:12:52;;;;;;;14.48;11.02;;;;;;;;;;2069336;28;20030;-76
2023/10/16 03:14:13;;;;;;;14.33;10.17;;;;;;;;;;2078988;28;20037;-75
2023/10/16 03:15:42;;;;;;;16.65;11.48;;;;;;;;;;2073803;28;21064;-75
2023/10/16 03:17:09;;;;;;;16.95;11.13;;;;;;;;;;2065735;28;20031;-75
2023/10/16 03:18:30;;;;;;;13.70;10.85;;;;;;;;;;2078779;28;20079;-75
2023/10/16 03:19:55;;;;;;;17.13;11.13;;;;;;;;;;2066452;28;20035;-75
2023/10/16 03:22:37;;;;;;;19.45;11.35;;;;;;;;;;2064586;28;20030;-75
2023/10/16 03:23:58;;;;;;;15.85;11.00;;;;;;;;;;2063121;28;20544;-74
2023/10/16 03:25:28;;;;;;;19.25;11.13;;;;;;;;;;2065139;28;20045;-74
2023/10/16 03:26:50;;;;;;;15.20;10.90;;;;;;;;;;2064478;28;20038;-75
2023/10/16 03:28:11;;;;;;;13.15;10.63;;;;;;;;;;2078503;28;20486;-75
2023/10/16 03:29:33;;;;;;;14.65;11.85;;;;;;;;;;2072929;28;20030;-73
2023/10/16 03:30:58;;;;;;;15.05;11.10;;;;;;;;;;2059345;28;20034;-75
2023/10/16 03:32:19;;;;;;;15.30;10.38;;;;;;;;;;2057641;28;20027;-75
2023/10/16 03:33:40;;;;;;;16.52;10.35;;;;;;;;;;2057278;28;20406;-75
2023/10/16 03:35:05;;;;;;;19.88;11.15;;;;;;;;;;2070397;28;20022;-74
2023/10/16 03:36:26;;;;;;;16.50;11.00;;;;;;;;;;2073501;28;20042;-75
2023/10/16 03:37:51;;;;;;;15.43;10.75;;;;;;;;;;2065403;28;20043;-78
2023/10/16 03:39:17;;;;;;;13.60;10.80;;;;;;;;;;2061251;28;20034;-73
2023/10/16 03:40:41;;;;;;;16.25;11.30;;;;;;;;;;2071839;28;20033;-74
2023/10/16 03:42:02;;;;;;;14.75;10.98;;;;;;;;;;2072771;28;20029;-74
2023/10/16 03:43:23;;;;;;;14.10;10.93;;;;;;;;;;2066712;28;20029;-73
2023/10/16 03:44:45;;;;;;;12.20;10.73;;;;;;;;;;2071902;28;20037;-73
2023/10/16 03:46:07;;;;;;;15.95;11.05;;;;;;;;;;2066953;28;20047;-74
2023/10/16 03:47:32;;;;;;;18.83;12.00;;;;;;;;;;2063907;28;20030;-74
2023/10/16 03:48:54;;;;;;;19.50;11.35;;;;;;;;;;2071423;28;20041;-73
2023/10/16 03:50:16;;;;;;;15.68;10.55;;;;;;;;;;2079201;28;20048;-74
2023/10/16 03:51:38;;;;;;;15.30;11.77;;;;;;;;;;2069337;28;20385;-72
2023/10/16 03:52:59;;;;;;;17.67;12.37;;;;;;;;;;2063530;28;20030;-74
2023/10/16 03:54:30;;;;;;;16.08;10.90;;;;;;;;;;2071308;28;20945;-74
2023/10/16 03:55:51;;;;;;;16.75;11.73;;;;;;;;;;2064652;28;20049;-75
2023/10/16 03:57:13;;;;;;;19.33;13.00;;;;;;;;;;2070582;28;20022;-74
2023/10/16 03:58:40;;;;;;;14.25;11.13;;;;;;;;;;2060402;28;20030;-74
2023/10/16 04:00:01;;;;;;;14.73;11.15;;;;;;;;;;2082436;28;20083;-73
2023/10/16 04:01:27;;;;;;;16.33;11.38;;;;;;;;;;2063919;28;20030;-74
2023/10/16 04:02:48;;;;;;;18.17;11.90;;;;;;;;;;2078012;28;20026;-73
2023/10/16 04:04:12;;;;;;;18.58;11.38;;;;;;;;;;2065249;28;20038;-73
2023/10/16 04:05:33;;;;;;;15.68;11.05;;;;;;;;;;2069053;28;20516;-74
2023/10/16 04:06:57;;;;;;;19.70;12.10;;;;;;;;;;2070124;28;20425;-74
2023/10/16 04:08:21;;;;;;;18.58;11.52;;;;;;;;;;2065858;28;20515;-73
2023/10/16 04:09:49;;;;;;;16.27;11.25;;;;;;;;;;2057734;28;20514;-73
2023/10/16 04:11:12;;;;;;;15.27;10.93;;;;;;;;;;2074131;28;20033;-73
2023/10/16 04:12:33;;;;;;;18.95;12.23;;;;;;;;;;2071704;28;20037;-73
2023/10/16 04:13:54;;;;;;;17.00;11.85;;;;;;;;;;2066734;28;20030;-74
2023/10/16 04:15:23;;;;;;;17.13;11.27;;;;;;;;;;2089117;28;20033;-73
2023/10/16 04:16:53;;;;;;;16.10;11.40;;;;;;;;;;2067091;28;20035;-74
2023/10/16 04:19:52;;;;;;;15.20;11.48;;;;;;;;;;2060432;28;20039;-75
2023/10/16 04:22:44;;;;;;;16.73;11.60;;;;;;;;;;2066261;28;20034;-74
2023/10/16 04:24:19;;;;;;;17.48;13.15;;;;;;;;;;2065892;28;20490;-74
2023/10/16 04:26:28;;;;;;;19.10;13.30;;;;;;;;;;2064855;28;20042;-74
2023/10/16 04:31:45;;;;;;;17.42;12.45;;;;;;;;;;2065894;28;20034;-73
2023/10/16 04:33:48;;;;;;;18.55;13.02;;;;;;;;;;2066824;28;20034;-73
2023/10/16 04:36:54;;;;;;;18.67;11.55;;;;;;;;;;2065238;28;20043;-73
2023/10/16 04:38:27;;;;;;;17.77;11.98;;;;;;;;;;2074141;28;20069;-73
2023/10/16 04:43:08;;;;;;;17.77;11.90;;;;;;;;;;2070264;28;20049;-73
2023/10/16 04:45:00;;;;;;;20.30;12.25;;;;;;;;;;2080083;28;20033;-73
2023/10/16 04:46:19;;;;;;;17.83;11.95;;;;;;;;;;2073295;28;20092;-73
2023/10/16 04:49:14;;;;;;;15.48;11.88;;;;;;;;;;2069608;28;20029;-78
2023/10/16 04:52:06;;;;;;;22.33;13.50;;;;;;;;;;2073633;28;20427;-78
2023/10/16 04:53:27;;;;;;;20.55;13.27;;;;;;;;;;2073640;28;20034;-78
2023/10/16 04:55:02;;;;;;;22.30;13.32;;;;;;;;;;2073712;28;20042;-78
2023/10/16 04:59:58;;;;;;;22.30;13.02;;;;;;;;;;2076064;28;20473;-78
2023/10/16 05:01:33;;;;;;;22.13;13.07;;;;;;;;;;2065621;28;20371;-78
2023/10/16 05:03:21;;;;;;;20.70;12.63;;;;;;;;;;2071857;28;20025;-78
2023/10/16 05:11:23;;;;;;;21.83;12.75;;;;;;;;;;2071077;28;20034;-78
2023/10/16 05:15:51;;;;;;;21.60;12.95;;;;;;;;;;2082470;28;20038;-78
2023/10/16 05:17:21;;;;;;;18.98;13.75;;;;;;;;;;2073626;28;20482;-78
2023/10/16 05:19:02;;;;;;;18.05;13.48;;;;;;;;;;2082975;28;20032;-78
2023/10/16 06:14:20;;;;;;;20.65;14.95;;;;;;;;;;2072766;28;20038;-74
2023/10/16 06:15:38;;;;;;;20.80;14.90;;;;;;;;;;2073626;28;20045;-75
2023/10/16 06:16:59;;;;;;;23.38;14.90;;;;;;;;;;2071694;28;20042;-75
2023/10/16 06:18:20;;;;;;;20.50;14.50;;;;;;;;;;2064952;28;20398;-76
2023/10/16 06:19:42;;;;;;;21.00;14.25;;;;;;;;;;2069151;28;20050;-76
2023/10/16 06:21:03;;;;;;;;;;;;;;;;;;2072351;28;20026;-75
2023/10/16 06:22:24;;;;;;;20.73;12.38;;;;;;;;;;2064258;28;20216;-76
2023/10/16 06:23:48;;;;;;;19.35;13.63;;;;;;;;;;2076902;28;20041;-76
2023/10/16 06:25:10;;;;;;;20.05;14.00;;;;;;;;;;2075286;28;20037;-75
2023/10/16 06:26:31;;;;;;;29.67;14.57;;;;;;;;;;2073034;28;20650;-76
2023/10/16 06:27:51;;;;;;;22.98;13.55;;;;;;;;;;2082928;28;20522;-75
2023/10/16 06:29:12;;;;;;;21.58;13.77;;;;;;;;;;2081128;28;20036;-76
2023/10/16 06:30:37;;;;;;;23.67;14.02;;;;;;;;;;2084396;28;20096;-75
2023/10/16 06:31:58;;;;;;;19.15;14.18;;;;;;;;;;2081474;28;20486;-76
2023/10/16 06:33:19;;;;;;;20.30;12.77;;;;;;;;;;2082032;28;20033;-77
2023/10/16 06:34:41;;;;;;;17.48;13.43;;;;;;;;;;2081757;28;20033;-77
2023/10/16 06:36:02;;;;;;;19.05;14.25;;;;;;;;;;2081166;28;20087;-76
2023/10/16 06:37:23;;;;;;;20.30;15.02;;;;;;;;;;2072018;28;20050;-77
2023/10/16 06:38:45;;;;;;;19.63;13.80;;;;;;;;;;2077103;28;20498;-76
2023/10/16 06:40:15;;;;;;;18.83;14.13;;;;;;;;;;2079186;28;20021;-77
2023/10/16 06:41:36;;;;;;;22.30;14.73;;;;;;;;;;2077741;28;20112;-77
2023/10/16 06:43:09;;;;;;;21.77;15.60;;;;;;;;;;2080640;28;20038;-77
2023/10/16 06:44:33;;;;;;;19.73;14.20;;;;;;;;;;2081031;28;20073;-77
2023/10/16 06:46:09;;;;;;;20.70;14.20;;;;;;;;;;2075361;28;20037;-75
2023/10/16 06:47:36;;;;;;;18.80;14.55;;;;;;;;;;2072832;28;20038;-76
2023/10/16 06:48:57;;;;;;;21.23;14.55;;;;;;;;;;2065097;28;20509;-77
2023/10/16 06:51:44;;;;;;;23.10;14.45;;;;;;;;;;2073289;28;20393;-77
2023/10/16 06:53:06;;;;;;;20.48;14.23;;;;;;;;;;2071377;28;20033;-78
2023/10/16 06:54:26;;;;;;;21.58;14.07;;;;;;;;;;2072658;28;20053;-78
2023/10/16 06:55:49;;;;;;;29.60;14.65;;;;;;;;;;2070894;28;20394;-78
2023/10/16 06:57:13;;;;;;;23.60;14.35;;;;;;;;;;2078790;28;20044;-77
2023/10/16 06:58:34;;;;;;;22.30;13.82;;;;;;;;;;2088040;28;20040;-76
2023/10/16 06:59:55;;;;;;;22.48;14.27;;;;;;;;;;2083801;28;20487;-78
2023/10/16 07:01:19;;;;;;;18.38;14.50;;;;;;;;;;2080573;28;20045;-76
2023/10/16 07:02:40;;;;;;;19.17;13.32;;;;;;;;;;2080985;28;20026;-76
2023/10/16 07:04:01;;;;;;;22.63;15.25;;;;;;;;;;2087193;28;20487;-76
2023/10/16 07:05:24;;;;;;;21.60;14.23;;;;;;;;;;2085601;28;20037;-73
2023/10/16 07:06:48;;;;;;;21.73;14.13;;;;;;;;;;2072438;28;20061;-76
2023/10/16 07:08:19;;;;;;;18.95;14.25;;;;;;;;;;2073225;28;20030;-77
2023/10/16 07:09:47;;;;;;;19.90;14.13;;;;;;;;;;2078413;28;20040;-77
2023/10/16 07:11:11;;;;;;;20.73;14.35;;;;;;;;;;2073238;28;20041;-77
2023/10/16 07:12:52;;;;;;;23.38;15.02;;;;;;;;;;2077076;28;20448;-76
2023/10/16 07:14:17;;;;;;;26.05;14.35;;;;;;;;;;2080959;28;20044;-76
2023/10/16 07:15:38;;;;;;;20.33;13.60;;;;;;;;;;2072773;28;20076;-76
2023/10/16 07:16:59;;;;;;;22.30;13.68;;;;;;;;;;2076890;28;20676;-77
2023/10/16 07:18:24;;;;;;;16.70;13.63;;;;;;;;;;2072655;28;20041;-77
2023/10/16 07:19:44;;;;;;;20.58;14.98;;;;;;;;;;2071961;28;20026;-76
2023/10/16 07:22:33;;;;;;;22.50;14.55;;;;;;;;;;2078939;28;20386;-77
2023/10/16 07:23:53;;;;;;;18.27;13.05;;;;;;;;;;2080787;28;20025;-77
2023/10/16 07:25:24;;;;;;;23.73;13.45;;;;;;;;;;2065383;28;20038;-77
2023/10/16 07:26:45;;;;;;;22.55;14.55;;;;;;;;;;2080074;28;20037;-77
2023/10/16 07:28:10;;;;;;;20.50;13.45;;;;;;;;;;2090114;28;20388;-77
2023/10/16 07:29:32;;;;;;;18.52;13.10;;;;;;;;;;2074280;28;20041;-78
2023/10/16 07:30:59;;;;;;;18.67;14.00;;;;;;;;;;2065849;28;20069;-81
2023/10/16 07:32:21;;;;;;;18.65;13.25;;;;;;;;;;2088962;28;20574;-78
2023/10/16 07:33:44;;;;;;;20.48;11.80;;;;;;;;;;2086481;28;20041;-79
2023/10/16 07:35:04;;;;;;;;;;;;;;;;;;2075696;28;20026;-77
2023/10/16 07:36:25;;;;;;;18.35;13.50;;;;;;;;;;2081309;28;19909;-78
2023/10/16 07:37:58;;;;;;;20.13;13.13;;;;;;;;;;2066906;28;20097;-79
2023/10/16 07:39:19;;;;;;;;;;;;;;;;;;2070875;28;20026;-79
2023/10/16 07:40:40;;;;;;;15.65;13.20;;;;;;;;;;2073044;28;20273;-78
2023/10/16 07:42:02;;;;;;;17.30;11.60;;;;;;;;;;2076357;28;20021;-78
2023/10/16 07:43:29;;;;;;;16.80;12.30;;;;;;;;;;2074089;28;20076;-77
2023/10/16 07:44:51;;;;;;;14.07;11.43;;;;;;;;;;2074352;28;20053;-77
2023/10/16 07:47:33;;;;;;;17.38;10.93;;;;;;;;;;2068720;28;20527;-79
2023/10/16 07:48:54;;;;;;;20.20;11.20;;;;;;;;;;2073643;28;20410;-79
2023/10/16 07:50:15;;;;;;;15.45;11.48;;;;;;;;;;2073984;28;20033;-77
2023/10/16 07:51:36;;;;;;;15.15;11.20;;;;;;;;;;2081793;28;20025;-78
2023/10/16 07:52:57;;;;;;;15.80;11.23;;;;;;;;;;2077153;28;20090;-77
2023/10/16 07:54:20;;;;;;;17.58;11.38;;;;;;;;;;2073738;28;20022;-77
2023/10/16 07:55:41;;;;;;;13.00;10.55;;;;;;;;;;2072619;28;20034;-76
2023/10/16 07:57:03;;;;;;;16.02;9.73;;;;;;;;;;2068353;28;20037;-77
2023/10/16 07:58:24;;;;;;;16.13;9.68;;;;;;;;;;2074553;28;20533;-77
2023/10/16 07:59:47;;;;;;;14.73;10.15;;;;;;;;;;2090905;28;20033;-77
2023/10/16 08:02:29;;;;;;;18.20;10.32;;;;;;;;;;2084667;28;20481;-76
2023/10/16 08:03:50;;;;;;;16.25;10.00;;;;;;;;;;2082232;28;20026;-77
2023/10/16 08:05:15;;;;;;;16.40;10.20;;;;;;;;;;2083203;28;20038;-77
2023/10/16 08:06:39;;;;;;;16.98;10.98;;;;;;;;;;2078824;28;20568;-77
2023/10/16 08:08:00;;;;;;;18.75;10.00;;;;;;;;;;2081081;28;20464;-77
2023/10/16 08:10:42;;;;;;;17.02;9.05;;;;;;;;;;2085861;28;20041;-77
2023/10/16 08:12:18;;;;;;;14.95;8.68;;;;;;;;;;2083772;28;20037;-77
2023/10/16 08:13:46;;;;;;;10.93;8.05;;;;;;;;;;2081043;28;20022;-77
2023/10/16 08:15:14;;;;;;;13.60;7.65;;;;;;;;;;2082017;28;20039;-77
2023/10/16 08:16:38;;;;;;;15.77;8.30;;;;;;;;;;2090003;28;20468;-77
2023/10/16 08:17:59;;;;;;;10.95;7.75;;;;;;;;;;2084899;28;20037;-77
2023/10/16 08:19:24;;;;;;;12.07;7.82;;;;;;;;;;2092018;28;20033;-73
2023/10/16 08:21:00;;;;;;;19.73;8.15;;;;;;;;;;2083844;28;20025;-73
2023/10/16 08:22:25;;;;;;;15.70;8.32;;;;;;;;;;2081877;28;20037;-73
2023/10/16 08:23:46;;;;;;;20.92;8.55;;;;;;;;;;2077381;28;20026;-73
2023/10/16 08:25:07;;;;;;;10.63;7.72;;;;;;;;;;2081218;28;20045;-74
2023/10/16 08:26:28;;;;;;;14.60;8.07;;;;;;;;;;2081379;28;20033;-72
2023/10/16 08:27:50;;;;;;;14.70;7.60;;;;;;;;;;2075700;28;20497;-73
2023/10/16 08:29:11;;;;;;;13.80;8.18;;;;;;;;;;2077464;28;20033;-73
2023/10/16 08:30:53;;;;;;;10.73;6.57;;;;;;;;;;2081481;28;20034;-73
2023/10/16 08:33:57;;;;;;;11.63;7.10;;;;;;;;;;2080759;28;20506;-73
2023/10/16 08:35:19;;;;;;;10.05;7.10;;;;;;;;;;2081862;28;20045;-73
2023/10/16 08:36:40;;;;;;;13.13;6.90;;;;;;;;;;2073326;28;20030;-73
2023/10/16 08:38:10;;;;;;;12.45;7.47;;;;;;;;;;2065922;28;20084;-74
2023/10/16 08:39:36;;;;;;;12.93;7.68;;;;;;;;;;2066022;28;20026;-73
2023/10/16 08:41:07;;;;;;;12.25;7.47;;;;;;;;;;2064765;28;20398;-73
2023/10/16 08:42:28;;;;;;;10.43;7.20;;;;;;;;;;2068528;28;20370;-73
2023/10/16 08:43:54;;;;;;;12.48;7.97;;;;;;;;;;2081539;28;20059;-73
2023/10/16 08:45:23;;;;;;;13.77;7.78;;;;;;;;;;2064918;28;20041;-75
2023/10/16 08:46:45;;;;;;;13.38;6.95;;;;;;;;;;2083983;28;20037;-73
2023/10/16 08:48:06;;;;;;;12.55;7.35;;;;;;;;;;2083909;28;20041;-73
2023/10/16 08:49:27;;;;;;;12.32;6.57;;;;;;;;;;2082472;28;20029;-75
2023/10/16 08:50:57;;;;;;;15.80;7.60;;;;;;;;;;2077294;28;20034;-75
2023/10/16 08:52:21;;;;;;;9.00;6.88;;;;;;;;;;2067910;28;20030;-75
2023/10/16 08:53:42;;;;;;;9.15;6.43;;;;;;;;;;2070837;28;20030;-75
2023/10/16 08:55:14;;;;;;;13.50;7.00;;;;;;;;;;2072066;28;20045;-74
2023/10/16 08:56:37;;;;;;;14.05;5.78;;;;;;;;;;2066220;28;20030;-75
2023/10/16 08:57:59;;;;;;;8.85;6.53;;;;;;;;;;2064605;28;20034;-75
2023/10/16 08:59:20;;;;;;;10.60;6.45;;;;;;;;;;2073306;28;20319;-74
2023/10/16 09:00:42;;;;;;;11.55;7.30;;;;;;;;;;2071778;28;20029;-75
2023/10/16 09:02:06;;;;;;;9.40;6.70;;;;;;;;;;2073547;28;20030;-75
2023/10/16 09:03:27;;;;;;;11.93;6.53;;;;;;;;;;2066857;28;20037;-73
2023/10/16 09:04:49;;;;;;;7.93;6.38;;;;;;;;;;2081980;28;20516;-75
2023/10/16 09:06:13;;;;;;;9.70;5.82;;;;;;;;;;2075399;28;20034;-75
2023/10/16 09:07:39;;;;;;;11.00;6.28;;;;;;;;;;2072349;28;20491;-75
2023/10/16 09:09:00;;;;;;;9.13;6.40;;;;;;;;;;2072563;28;20393;-75
2023/10/16 09:10:21;;;;;;;10.02;6.13;;;;;;;;;;2080087;28;20041;-76
2023/10/16 09:11:47;;;;;;;6.55;5.82;;;;;;;;;;2075969;28;20417;-75
2023/10/16 09:13:16;;;;;;;10.10;6.40;;;;;;;;;;2072737;28;20113;-75
2023/10/16 09:14:40;;;;;;;11.38;6.32;;;;;;;;;;2078900;28;20030;-75
2023/10/16 09:16:02;;;;;;;8.98;6.20;;;;;;;;;;2069392;28;20478;-75
2023/10/16 09:17:24;;;;;;;14.63;7.63;;;;;;;;;;2080560;28;20030;-75
2023/10/16 09:18:45;;;;;;;10.68;6.65;;;;;;;;;;2073976;28;20037;-75
2023/10/16 09:20:13;;;;;;;13.75;7.78;;;;;;;;;;2070203;28;20026;-75
2023/10/16 09:21:38;;;;;;;11.52;6.05;;;;;;;;;;2074526;28;20022;-75
2023/10/16 09:23:01;;;;;;;8.80;5.68;;;;;;;;;;2077860;28;20495;-75
2023/10/16 09:24:24;;;;;;;14.98;6.57;;;;;;;;;;2080983;28;20030;-75
2023/10/16 09:25:46;;;;;;;9.27;6.03;;;;;;;;;;2077530;28;20029;-76
2023/10/16 09:27:22;;;;;;;11.15;6.05;;;;;;;;;;2077355;28;20030;-74
2023/10/16 09:28:47;;;;;;;9.10;5.53;;;;;;;;;;2073990;28;20547;-75
2023/10/16 09:30:18;;;;;;;8.77;5.68;;;;;;;;;;2085411;28;20044;-76
2023/10/16 09:31:41;;;;;;;9.32;5.50;;;;;;;;;;2067460;28;20106;-76
2023/10/16 09:33:03;;;;;;;7.60;5.38;;;;;;;;;;2070754;28;20034;-76
2023/10/16 09:34:26;;;;;;;9.75;5.75;;;;;;;;;;2083391;28;20022;-76
2023/10/16 09:35:47;;;;;;;7.40;5.65;;;;;;;;;;2080338;28;20503;-76
2023/10/16 09:37:20;;;;;;;11.23;5.88;;;;;;;;;;2088323;28;20045;-76
2023/10/16 09:38:42;;;;;;;7.57;6.10;;;;;;;;;;2078425;28;20037;-76
2023/10/16 09:40:19;;;;;;;6.32;5.20;;;;;;;;;;2070266;28;20394;-76
2023/10/16 09:41:40;;;;;;;8.85;5.95;;;;;;;;;;2078885;28;20052;-77
2023/10/16 09:43:08;;;;;;;10.02;5.88;;;;;;;;;;2074818;28;20138;-76
2023/10/16 09:44:38;;;;;;;8.98;6.13;;;;;;;;;;2080153;28;20453;-76
2023/10/16 09:47:49;;;;;;;7.07;4.88;;;;;;;;;;2062550;28;20053;-76
2023/10/16 09:49:13;;;;;;;11.45;5.38;;;;;;;;;;2073782;28;20038;-76
2023/10/16 09:50:36;;;;;;;9.20;5.97;;;;;;;;;;2068889;28;20520;-77